Flight Track Log - Related Links

Times and Time Zones

All times are in EDT time to prevent confusion due to time zone crossing. See the N662US flight status page for this flight to view local times or setup timezone preferences in your user account.

Time Position Orientation Groundspeed Altitude Reporting Facility
EDT Latitude Longitude Course Direction KTS MPH feet Rate Location/Type
Thu 02:41:42 PM 40.6150 -73.7490 125° Southeast 179 206 600  Level FlightAware ADS-B
Thu 02:42:12 PM 40.5930 -73.7270 143° Southeast 205 236 1,200 800 Climbing FlightAware ADS-B
Thu 02:42:27 PM 40.5850 -73.7110 123° Southeast 225 259 1,200 480 Level FlightAware ADS-B
Thu 02:42:37 PM 40.5830 -73.6990 102° East 230 265 1,400 600 Climbing FlightAware ADS-B
Thu 02:43:07 PM 40.5950 -73.6590 68° East 252 290 1,600 1,000 Climbing FlightAware ADS-B
Thu 02:43:37 PM 40.6240 -73.6300 37° Northeast 263 303 2,400 1,467 Climbing FlightAware ADS-B
Thu 02:43:52 PM 40.6380 -73.6160 37° Northeast 270 311 2,700 1,500 Climbing FlightAware ADS-B
Thu 02:44:17 PM 40.6650 -73.5920 34° Northeast 281 323 3,400 1,964 Climbing FlightAware ADS-B
Thu 02:44:47 PM 40.6980 -73.5630 34° Northeast 280 322 4,500 1,964 Climbing FlightAware ADS-B
Thu 02:45:12 PM 40.7230 -73.5420 32° Northeast 279 321 5,200 1,745 Climbing FlightAware ADS-B
Thu 02:45:42 PM 40.7570 -73.5120 34° Northeast 291 335 6,100 1,964 Climbing FlightAware ADS-B
Thu 02:46:07 PM 40.7870 -73.4870 32° Northeast 292 336 7,000 2,250 Climbing FlightAware ADS-B
Thu 02:46:22 PM 40.8020 -73.4740 33° Northeast 289 333 7,600 2,000 Climbing FlightAware ADS-B
Thu 02:46:52 PM 40.8380 -73.4410 35° Northeast 299 344 8,500 1,745 Climbing FlightAware ADS-B
Thu 02:47:17 PM 40.8680 -73.4190 29° Northeast 304 350 9,200 1,500 Climbing FlightAware ADS-B
Thu 02:47:32 PM 40.8860 -73.4150 10° North 314 361 9,500 1,333 Climbing FlightAware ADS-B
Thu 02:48:02 PM 40.9260 -73.4360 338° Northwest 337 388 10,200 1,200 Climbing FlightAware ADS-B
Thu 02:48:12 PM 40.9380 -73.4540 311° West 350 403 10,300 1,200 Climbing FlightAware ADS-B
Thu 02:48:27 PM 40.9500 -73.4870 296° West 365 420 10,700 1,200 Climbing FlightAware ADS-B
Thu 02:48:42 PM 40.9540 -73.5190 279° West 377 434 10,900 1,000 Climbing FlightAware ADS-B
Thu 02:49:27 PM 40.9470 -73.6240 265° West 404 465 11,700 1,186 Climbing FlightAware ADS-B
Thu 02:50:08 PM 40.9625 -73.7317 281° West 412 474 12,600 1,333 Climbing FlightAware ADS-B
Thu 02:50:30 PM 40.9873 -73.7746 307° West 412 474 13,100 2,250 Climbing FlightAware ADS-B
Thu 02:51:04 PM 41.0320 -73.8365 314° West 403 464 14,700 2,294 Climbing FlightAware ADS-B
Thu 02:51:38 PM 41.0766 -73.8983 314° West 407 468 15,700 1,292 Climbing FlightAware ADS-B
Thu 02:52:09 PM 41.1182 -73.9557 314° West 429 494 16,100 649 Climbing FlightAware ADS-B
Thu 02:52:52 PM 41.1790 -74.0397 314° West 440 506 16,500 273 Climbing FlightAware ADS-B
Thu 02:53:37 PM 41.2410 -74.1260 314° West 447 514 16,500  Level FlightAware ADS-B
Thu 02:53:50 PM 41.2614 -74.1552 313° West 445 512 16,500  Level FlightAware ADS-B
Thu 02:54:22 PM 41.3000 -74.2100 313° West 449 517 16,500  Level FlightAware ADS-B
Thu 02:54:32 PM 41.3218 -74.2393 315° West 448 516 16,500 585 Level FlightAware ADS-B
Thu 02:55:03 PM 41.3660 -74.3010 314° West 449 517 16,900 277 Climbing FlightAware ADS-B
Thu 02:55:37 PM 41.4050 -74.3580 312° West 448 516 16,800 1,698 Descending FlightAware ADS-B
Thu 02:55:56 PM 41.4321 -74.4185 301° West 453 521 18,400 2,400 Climbing FlightAware ADS-B
Thu 02:56:57 PM 41.4982 -74.5705 300° West 472 543 20,000 1,516 Climbing FlightAware ADS-B
Thu 02:57:27 PM 41.5310 -74.6468 300° West 474 545 20,700 1,350 Climbing FlightAware ADS-B
Thu 02:58:17 PM 41.5886 -74.7748 301° West 478 550 21,800 1,268 Climbing FlightAware ADS-B
Thu 02:58:38 PM 41.6180 -74.8192 312° West 476 548 22,200 1,200 Climbing FlightAware ADS-B
Thu 02:59:42 PM 41.7200 -74.9350 320° Northwest 479 551 23,500 1,160 Climbing FlightAware ADS-B
Thu 03:00:37 PM 41.8130 -75.0370 321° Northwest 484 557 24,500 840 Climbing FlightAware ADS-B
Thu 03:01:22 PM 41.8920 -75.1250 320° Northwest 486 559 24,900 282 Climbing FlightAware ADS-B
Thu 03:02:02 PM 41.9510 -75.1910 320° Northwest 486 559 24,900  Level FlightAware ADS-B
Thu 03:02:42 PM 42.0090 -75.2570 320° Northwest 486 559 24,900  Level FlightAware ADS-B
Thu 03:03:22 PM 42.0680 -75.3230 320° Northwest 486 559 24,900  Level FlightAware ADS-B
Thu 03:04:02 PM 42.1260 -75.3890 320° Northwest 486 559 24,900  Level FlightAware ADS-B
Thu 03:04:52 PM 42.2000 -75.4720 320° Northwest 486 559 24,900 3,727 Level FlightAware ADS-B
Thu 03:05:08 PM 42.3231 -75.5264 320° Northwest 496 571 29,000 3,947 Climbing Boston Center
Thu 03:06:08 PM 42.4411 -75.6222 329° Northwest 496 571 29,900 500 Climbing Boston Center
Thu 03:07:08 PM 42.5594 -75.7158 330° Northwest 491 565 30,000 50 Climbing Boston Center
Thu 03:08:08 PM 42.6797 -75.8125 329° Northwest 491 565 30,000  Level Boston Center
Thu 03:09:08 PM 42.7956 -75.9094 328° Northwest 491 565 30,000  Level Boston Center
Thu 03:10:08 PM 42.9156 -76.0042 330° Northwest 491 565 30,000  Level Boston Center
Thu 03:11:08 PM 43.0092 -76.0833 328° Northwest 491 565 30,000  Level Boston Center
Thu 03:12:08 PM 43.1392 -76.1878 330° Northwest 491 565 30,000  Level Boston Center
Thu 03:13:08 PM 43.2683 -76.2528 340° North 491 565 30,000  Level Boston Center
Thu 03:14:08 PM 43.4019 -76.3069 344° North 496 571 30,000  Level Boston Center
Thu 03:15:08 PM 43.5314 -76.3639 342° North 496 571 30,000  Level Boston Center
Thu 03:16:08 PM 43.6631 -76.4183 343° North 491 565 30,000  Level Boston Center
Thu 03:17:08 PM 43.7986 -76.4736 344° North 491 565 30,000  Level Boston Center
Thu 03:18:08 PM 43.9300 -76.5314 342° North 491 565 30,000  Level Boston Center
Thu 03:19:43 PM 44.1333 -76.5833 350° North 500 575 30,000  Level Toronto Center
Thu 03:20:08 PM 44.2000 -76.6500 324° Northwest 500 575 30,000  Level Montreal Center
Thu 03:20:43 PM 44.2667 -76.6500 360° North 500 575 30,000  Level Toronto Center
Thu 03:26:27 PM 45.0390 -77.0060 360° North 506 582 30,000  Level FlightAware ADS-B
Thu 03:26:43 PM 45.0833 -77.0167 360° North 510 587 30,000  Level Toronto Center
Thu 03:27:08 PM 45.1333 -77.0667 325° Northwest 510 587 30,000  Level Montreal Center
Thu 03:33:22 PM 45.9910 -77.3540 325° Northwest 510 587 30,000  Level FlightAware ADS-B
Thu 03:34:17 PM 46.1200 -77.4020 346° North 511 588 30,000  Level FlightAware ADS-B
Thu 03:36:27 PM 46.4110 -77.5130 345° North 510 587 30,000  Level FlightAware ADS-B
Thu 03:37:07 PM 46.4890 -77.5430 345° North 510 587 30,000  Level FlightAware ADS-B
Thu 03:37:47 PM 46.5660 -77.5730 345° North 510 587 30,000  Level FlightAware ADS-B
Thu 03:38:27 PM 46.6440 -77.6030 345° North 510 587 30,000  Level FlightAware ADS-B
Thu 03:39:17 PM 46.7410 -77.6410 345° North 510 587 30,000  Level FlightAware ADS-B
Thu 03:39:57 PM 46.8180 -77.6710 345° North 510 587 30,000  Level FlightAware ADS-B
Thu 03:40:37 PM 46.8960 -77.7020 345° North 510 587 30,000  Level FlightAware ADS-B
Thu 03:41:17 PM 46.9730 -77.7320 345° North 510 587 30,000  Level FlightAware ADS-B
Thu 03:41:57 PM 47.0510 -77.7630 345° North 510 587 30,000  Level FlightAware ADS-B
Thu 03:42:37 PM 47.1280 -77.7930 345° North 510 587 30,000  Level FlightAware ADS-B
Thu 03:43:27 PM 47.2250 -77.8310 345° North 510 587 30,000  Level FlightAware ADS-B
Thu 03:44:07 PM 47.3030 -77.8620 345° North 510 587 30,000  Level FlightAware ADS-B
Thu 03:44:47 PM 47.3800 -77.8920 345° North 510 587 30,000  Level FlightAware ADS-B
Thu 03:45:27 PM 47.4580 -77.9230 345° North 510 587 30,000  Level FlightAware ADS-B
Thu 03:47:12 PM 47.8840 -78.0920 345° North 511 588 30,000  Level FlightAware ADS-B
Thu 03:47:52 PM 47.9870 -78.1340 345° North 511 588 30,000  Level FlightAware ADS-B
Thu 03:48:37 PM 48.0780 -78.1730 344° North 511 588 30,000  Level FlightAware ADS-B
Thu 03:49:17 PM 48.1550 -78.2060 344° North 511 588 30,000  Level FlightAware ADS-B
Thu 03:49:57 PM 48.2330 -78.2400 344° North 511 588 30,000  Level FlightAware ADS-B
Thu 03:50:37 PM 48.3100 -78.2730 344° North 511 588 30,000  Level FlightAware ADS-B
Thu 03:51:27 PM 48.4070 -78.3150 344° North 511 588 30,000  Level FlightAware ADS-B
Thu 03:52:07 PM 48.4840 -78.3480 344° North 511 588 30,000  Level FlightAware ADS-B
Thu 03:52:47 PM 48.5610 -78.3820 344° North 511 588 30,000  Level FlightAware ADS-B
Thu 03:53:27 PM 48.6380 -78.4150 344° North 511 588 30,000  Level FlightAware ADS-B
Thu 03:54:07 PM 48.7160 -78.4490 344° North 511 588 30,000  Level FlightAware ADS-B
Thu 03:54:47 PM 48.7930 -78.4820 344° North 511 588 30,000  Level FlightAware ADS-B
Thu 03:55:27 PM 48.8700 -78.5160 344° North 511 588 30,000  Level FlightAware ADS-B
Thu 03:56:17 PM 48.9670 -78.5580 344° North 511 588 30,000  Level FlightAware ADS-B
Thu 03:56:57 PM 49.0440 -78.5920 344° North 511 588 30,000  Level FlightAware ADS-B
Thu 03:57:37 PM 49.1210 -78.6260 344° North 511 588 30,000  Level FlightAware ADS-B
Thu 03:58:08 PM 49.4000 -78.7500 344° North 480 552 30,000  Level Montreal Center
Thu 03:59:08 PM 49.5500 -78.8167 344° North 540 621 30,000  Level Montreal Center
Thu 04:00:08 PM 49.6833 -78.8833 342° North 520 598 30,000  Level Montreal Center
Thu 04:01:08 PM 49.8167 -78.9333 346° North 510 587 30,000  Level Montreal Center
Thu 04:02:08 PM 49.9667 -79.0000 344° North 530 610 30,000  Level Montreal Center
Thu 04:03:08 PM 50.1000 -79.0667 342° North 510 587 30,000  Level Montreal Center
Thu 04:04:08 PM 50.2333 -79.1500 338° Northwest 510 587 30,000  Level Montreal Center
Thu 04:05:08 PM 50.3833 -79.2167 344° North 520 598 30,000  Level Montreal Center
Thu 04:06:08 PM 50.5167 -79.3000 338° Northwest 520 598 30,000  Level Montreal Center
Thu 04:07:08 PM 50.6500 -79.3667 342° North 510 587 30,000  Level Montreal Center
Thu 04:08:08 PM 50.7833 -79.4500 338° Northwest 510 587 30,000  Level Montreal Center
Thu 04:09:08 PM 50.9167 -79.5167 343° North 520 598 30,000  Level Montreal Center
Thu 04:10:08 PM 51.0667 -79.6000 341° North 510 587 30,000  Level Montreal Center
Thu 04:11:08 PM 51.2000 -79.6667 343° North 520 598 30,000  Level Montreal Center
Thu 04:12:08 PM 51.3500 -79.7667 337° Northwest 520 598 30,000  Level Montreal Center
Thu 04:13:08 PM 51.4833 -79.8333 343° North 510 587 30,000  Level Montreal Center
Thu 04:14:08 PM 51.6167 -79.9000 343° North 520 598 30,000  Level Montreal Center
Thu 04:15:08 PM 51.7333 -79.9833 336° Northwest 520 598 30,000  Level Montreal Center
Thu 04:16:08 PM 51.8667 -80.0500 343° North 510 587 30,000  Level Montreal Center
Thu 04:17:08 PM 52.0000 -80.1500 335° Northwest 510 587 30,000  Level Montreal Center
Thu 04:18:08 PM 52.1333 -80.2167 343° North 510 587 30,000  Level Montreal Center
Thu 04:19:08 PM 52.2833 -80.3167 338° Northwest 500 575 30,000  Level Montreal Center
Thu 04:20:08 PM 52.4167 -80.3833 343° North 510 587 30,000  Level Montreal Center
Thu 04:21:08 PM 52.5500 -80.4500 343° North 510 587 30,000  Level Montreal Center
Thu 04:22:08 PM 52.6833 -80.5500 336° Northwest 510 587 30,000  Level Montreal Center
Thu 04:23:08 PM 52.8167 -80.6167 343° North 510 587 30,000  Level Montreal Center
Thu 04:24:08 PM 52.9500 -80.6833 343° North 510 587 30,000  Level Montreal Center
Thu 04:25:07 PM 53.0333 -80.6500 14° North 520 598 30,000  Level Edmonton Center
Thu 04:26:07 PM 53.1833 -80.7500 338° Northwest 520 598 30,000  Level Edmonton Center
Thu 04:27:07 PM 53.3333 -80.8333 342° North 520 598 30,000  Level Edmonton Center
Thu 04:28:07 PM 53.4500 -80.9167 337° Northwest 520 598 30,000  Level Edmonton Center
Thu 04:29:07 PM 53.6000 -81.0000 342° North 520 598 30,000  Level Edmonton Center
Thu 04:30:07 PM 53.7167 -81.1000 333° Northwest 520 598 30,000  Level Edmonton Center
Thu 04:31:07 PM 53.8667 -81.1667 345° North 520 598 30,000  Level Edmonton Center
Thu 04:32:07 PM 53.9833 -81.2667 333° Northwest 520 598 30,000  Level Edmonton Center
Thu 04:33:07 PM 54.1333 -81.3333 345° North 520 598 30,000  Level Edmonton Center
Thu 04:34:07 PM 54.2500 -81.4333 333° Northwest 520 598 30,000  Level Edmonton Center
Thu 04:35:07 PM 54.4000 -81.5333 339° North 520 598 30,000  Level Edmonton Center
Thu 04:36:07 PM 54.5333 -81.6000 344° North 520 598 30,000  Level Edmonton Center
Thu 04:37:07 PM 54.6667 -81.7000 337° Northwest 520 598 30,000  Level Edmonton Center
Thu 04:38:07 PM 54.8000 -81.7667 344° North 520 598 30,000  Level Edmonton Center
Thu 04:39:07 PM 54.9500 -81.8667 339° North 520 598 30,000  Level Edmonton Center
Thu 04:40:07 PM 55.1000 -81.9667 339° North 520 598 30,000  Level Edmonton Center
Thu 04:42:00 PM 55.3183 -82.2046 328° Northwest  Level FlightAware Approximate
Thu 04:45:07 PM 55.7833 -82.3167 329° Northwest 530 610 30,000  Level Edmonton Center
Thu 04:46:07 PM 55.9333 -82.3833 326° Northwest 530 610 30,000  Level Edmonton Center
Thu 04:47:00 PM 55.9935 -82.5735 326° Northwest  Level FlightAware Approximate
Thu 04:47:07 PM 56.0667 -82.4833 337° Northwest 530 610 30,000  Level Edmonton Center
Thu 04:48:07 PM 56.2000 -82.5667 341° North 530 610 30,000  Level Edmonton Center
Thu 04:49:00 PM 56.1261 -83.1119 329° Northwest  Level FlightAware Approximate
Thu 04:49:07 PM 56.3500 -82.6333 346° North 530 610 30,000  Level Edmonton Center
Thu 04:50:00 PM 56.2426 -83.2397 329° Northwest  Level FlightAware Approximate
Thu 04:50:07 PM 56.4833 -82.7000 345° North 530 610 30,000  Level Edmonton Center
Thu 04:54:00 PM 57.0394 -83.3623 327° Northwest  Level FlightAware Approximate
Thu 05:01:00 PM 57.8329 -84.3503 327° Northwest  Level FlightAware Approximate
Thu 05:02:00 PM 57.9456 -84.4950 326° Northwest  Level FlightAware Approximate
Thu 05:03:00 PM 58.0582 -84.6406 326° Northwest  Level FlightAware Approximate
Thu 05:04:00 PM 58.1706 -84.7871 326° Northwest  Level FlightAware Approximate
Thu 05:05:00 PM 58.2828 -84.9345 325° Northwest  Level FlightAware Approximate
Thu 05:06:00 PM 58.3948 -85.0829 325° Northwest  Level FlightAware Approximate
Thu 05:07:00 PM 58.5067 -85.2323 325° Northwest  Level FlightAware Approximate
Thu 05:08:00 PM 58.6184 -85.3826 325° Northwest  Level FlightAware Approximate
Thu 05:09:00 PM 58.7299 -85.5338 325° Northwest  Level FlightAware Approximate
Thu 05:10:00 PM 58.8412 -85.6860 325° Northwest  Level FlightAware Approximate
Thu 05:11:00 PM 58.9524 -85.8392 325° Northwest  Level FlightAware Approximate
Thu 05:12:00 PM 59.0634 -85.9934 324° Northwest  Level FlightAware Approximate
Thu 05:13:00 PM 59.1742 -86.1486 324° Northwest  Level FlightAware Approximate
Thu 05:14:00 PM 59.2848 -86.3048 324° Northwest  Level FlightAware Approximate
Thu 05:15:00 PM 59.3952 -86.4620 324° Northwest  Level FlightAware Approximate
Thu 05:16:00 PM 59.5054 -86.6203 324° Northwest  Level FlightAware Approximate
Thu 05:17:00 PM 59.6155 -86.7795 324° Northwest  Level FlightAware Approximate
Thu 05:18:00 PM 59.7253 -86.9399 324° Northwest  Level FlightAware Approximate
Thu 05:19:00 PM 59.8349 -87.1012 324° Northwest  Level FlightAware Approximate
Thu 05:20:00 PM 59.9444 -87.2637 323° Northwest  Level FlightAware Approximate
Thu 05:21:00 PM 60.0536 -87.4272 323° Northwest  Level FlightAware Approximate
Thu 05:22:00 PM 60.1627 -87.5918 323° Northwest  Level FlightAware Approximate
Thu 05:23:00 PM 60.2715 -87.7575 323° Northwest  Level FlightAware Approximate
Thu 05:24:00 PM 60.3802 -87.9243 323° Northwest  Level FlightAware Approximate
Thu 05:25:00 PM 60.4886 -88.0923 323° Northwest  Level FlightAware Approximate
Thu 05:26:00 PM 60.5968 -88.2613 323° Northwest  Level FlightAware Approximate
Thu 05:27:00 PM 60.7048 -88.4315 322° Northwest  Level FlightAware Approximate
Thu 05:28:00 PM 60.8126 -88.6028 322° Northwest  Level FlightAware Approximate
Thu 05:29:00 PM 60.9201 -88.7753 322° Northwest  Level FlightAware Approximate
Thu 05:30:00 PM 61.0275 -88.9490 322° Northwest  Level FlightAware Approximate
Thu 05:31:00 PM 61.1346 -89.1238 322° Northwest  Level FlightAware Approximate
Thu 05:32:00 PM 61.2414 -89.2998 322° Northwest  Level FlightAware Approximate
Thu 05:33:00 PM 61.3481 -89.4770 321° Northwest  Level FlightAware Approximate
Thu 05:34:00 PM 61.4545 -89.6555 321° Northwest  Level FlightAware Approximate
Thu 05:35:00 PM 61.5607 -89.8351 321° Northwest  Level FlightAware Approximate
Thu 05:36:00 PM 61.6666 -90.0160 321° Northwest  Level FlightAware Approximate
Thu 05:37:00 PM 61.7724 -90.1981 321° Northwest  Level FlightAware Approximate
Thu 05:38:00 PM 61.8778 -90.3815 321° Northwest  Level FlightAware Approximate
Thu 05:39:00 PM 61.9830 -90.5661 321° Northwest  Level FlightAware Approximate
Thu 05:40:00 PM 62.0980 -90.7226 324° Northwest  Level FlightAware Approximate
Thu 05:41:00 PM 62.2085 -90.8940 324° Northwest  Level FlightAware Approximate
Thu 05:42:00 PM 62.3188 -91.0666 324° Northwest  Level FlightAware Approximate
Thu 05:43:00 PM 62.4289 -91.2404 324° Northwest  Level FlightAware Approximate
Thu 05:44:00 PM 62.5388 -91.4156 324° Northwest  Level FlightAware Approximate
Thu 05:45:00 PM 62.6484 -91.5920 324° Northwest  Level FlightAware Approximate
Thu 05:46:00 PM 62.7579 -91.7698 323° Northwest  Level FlightAware Approximate
Thu 05:47:00 PM 62.8671 -91.9489 323° Northwest  Level FlightAware Approximate
Thu 05:48:00 PM 62.9761 -92.1293 323° Northwest  Level FlightAware Approximate
Thu 05:49:00 PM 63.0848 -92.3111 323° Northwest  Level FlightAware Approximate
Thu 05:50:00 PM 63.1933 -92.4942 323° Northwest  Level FlightAware Approximate
Thu 05:51:00 PM 63.3016 -92.6787 323° Northwest  Level FlightAware Approximate
Thu 05:52:00 PM 63.4096 -92.8646 322° Northwest  Level FlightAware Approximate
Thu 05:53:00 PM 63.5174 -93.0519 322° Northwest  Level FlightAware Approximate
Thu 05:54:00 PM 63.6249 -93.2406 322° Northwest  Level FlightAware Approximate
Thu 05:55:00 PM 63.7322 -93.4308 322° Northwest  Level FlightAware Approximate
Thu 05:56:00 PM 63.8393 -93.6224 322° Northwest  Level FlightAware Approximate
Thu 05:57:00 PM 63.9460 -93.8154 322° Northwest  Level FlightAware Approximate
Thu 05:58:00 PM 64.0526 -94.0099 321° Northwest  Level FlightAware Approximate
Thu 05:59:00 PM 64.1588 -94.2060 321° Northwest  Level FlightAware Approximate
Thu 06:00:00 PM 64.2648 -94.4035 321° Northwest  Level FlightAware Approximate
Thu 06:01:00 PM 64.3706 -94.6025 321° Northwest  Level FlightAware Approximate
Thu 06:02:00 PM 64.4760 -94.8031 321° Northwest  Level FlightAware Approximate
Thu 06:03:00 PM 64.5812 -95.0053 321° Northwest  Level FlightAware Approximate
Thu 06:04:00 PM 64.6861 -95.2090 320° Northwest  Level FlightAware Approximate
Thu 06:05:00 PM 64.7907 -95.4142 320° Northwest  Level FlightAware Approximate
Thu 06:06:00 PM 64.8951 -95.6211 320° Northwest  Level FlightAware Approximate
Thu 06:07:00 PM 64.9991 -95.8296 320° Northwest  Level FlightAware Approximate
Thu 06:08:00 PM 65.1029 -96.0397 320° Northwest  Level FlightAware Approximate
Thu 06:09:00 PM 65.2063 -96.2515 319° Northwest  Level FlightAware Approximate
Thu 06:10:00 PM 65.3095 -96.4649 319° Northwest  Level FlightAware Approximate
Thu 06:11:00 PM 65.4123 -96.6800 319° Northwest  Level FlightAware Approximate
Thu 06:12:00 PM 65.5149 -96.8968 319° Northwest  Level FlightAware Approximate
Thu 06:13:00 PM 65.6171 -97.1153 319° Northwest  Level FlightAware Approximate
Thu 06:14:00 PM 65.7190 -97.3355 318° Northwest  Level FlightAware Approximate
Thu 06:15:00 PM 65.8206 -97.5575 318° Northwest  Level FlightAware Approximate
Thu 06:16:00 PM 65.9219 -97.7812 318° Northwest  Level FlightAware Approximate
Thu 06:17:00 PM 66.0228 -98.0067 318° Northwest  Level FlightAware Approximate
Thu 06:18:00 PM 66.1234 -98.2340 318° Northwest  Level FlightAware Approximate
Thu 06:19:00 PM 66.2237 -98.4631 317° Northwest  Level FlightAware Approximate
Thu 06:20:00 PM 66.3236 -98.6940 317° Northwest  Level FlightAware Approximate
Thu 06:21:00 PM 66.4232 -98.9267 317° Northwest  Level FlightAware Approximate
Thu 06:22:00 PM 66.5225 -99.1613 317° Northwest  Level FlightAware Approximate
Thu 06:23:00 PM 66.6212 -99.3981 316° Northwest  Level FlightAware Approximate
Thu 06:24:00 PM 66.7195 -99.6371 316° Northwest  Level FlightAware Approximate
Thu 06:25:00 PM 66.8175 -99.8780 316° Northwest  Level FlightAware Approximate
Thu 06:26:00 PM 66.9152 -100.1205 316° Northwest  Level FlightAware Approximate
Thu 06:27:00 PM 67.0126 -100.3647 316° Northwest  Level FlightAware Approximate
Thu 06:28:00 PM 67.1096 -100.6109 315° West  Level FlightAware Approximate
Thu 06:29:00 PM 67.2062 -100.8590 315° West  Level FlightAware Approximate
Thu 06:30:00 PM 67.3025 -101.1092 315° West  Level FlightAware Approximate
Thu 06:31:00 PM 67.3984 -101.3613 315° West  Level FlightAware Approximate
Thu 06:32:00 PM 67.4938 -101.6155 315° West  Level FlightAware Approximate
Thu 06:33:00 PM 67.5889 -101.8717 314° West  Level FlightAware Approximate
Thu 06:34:00 PM 67.6836 -102.1301 314° West  Level FlightAware Approximate
Thu 06:35:00 PM 67.7778 -102.3904 314° West  Level FlightAware Approximate
Thu 06:36:00 PM 67.8717 -102.6529 314° West  Level FlightAware Approximate
Thu 06:37:00 PM 67.9651 -102.9175 313° West  Level FlightAware Approximate
Thu 06:38:00 PM 68.0580 -103.1842 313° West  Level FlightAware Approximate
Thu 06:39:00 PM 68.1506 -103.4531 313° West  Level FlightAware Approximate
Thu 06:40:00 PM 68.2427 -103.7242 313° West  Level FlightAware Approximate
Thu 06:41:00 PM 68.3344 -103.9975 312° West  Level FlightAware Approximate
Thu 06:42:00 PM 68.4256 -104.2729 312° West  Level FlightAware Approximate
Thu 06:43:00 PM 68.5163 -104.5506 312° West  Level FlightAware Approximate
Thu 06:44:00 PM 68.6066 -104.8305 312° West  Level FlightAware Approximate
Thu 06:45:00 PM 68.6964 -105.1126 311° West  Level FlightAware Approximate
Thu 06:46:00 PM 68.7858 -105.3971 311° West  Level FlightAware Approximate
Thu 06:47:00 PM 68.8747 -105.6838 311° West  Level FlightAware Approximate
Thu 06:48:00 PM 68.9630 -105.9728 311° West  Level FlightAware Approximate
Thu 06:49:00 PM 69.0509 -106.2642 310° West  Level FlightAware Approximate
Thu 06:50:00 PM 69.1383 -106.5579 310° West  Level FlightAware Approximate
Thu 06:51:00 PM 69.2252 -106.8539 310° West  Level FlightAware Approximate
Thu 06:52:00 PM 69.3116 -107.1523 309° West  Level FlightAware Approximate
Thu 06:53:00 PM 69.3975 -107.4531 309° West  Level FlightAware Approximate
Thu 06:54:00 PM 69.4828 -107.7563 309° West  Level FlightAware Approximate
Thu 06:55:00 PM 69.5676 -108.0620 309° West  Level FlightAware Approximate
Thu 06:56:00 PM 69.6519 -108.3700 308° West  Level FlightAware Approximate
Thu 06:57:00 PM 69.7356 -108.6805 308° West  Level FlightAware Approximate
Thu 06:58:00 PM 69.8187 -108.9934 308° West  Level FlightAware Approximate
Thu 06:59:00 PM 69.9014 -109.3089 307° West  Level FlightAware Approximate
Thu 07:00:00 PM 69.9825 -109.6232 307° West  Level FlightAware Approximate
Thu 07:01:00 PM 70.0631 -109.9400 307° West  Level FlightAware Approximate
Thu 07:02:00 PM 70.1431 -110.2593 307° West  Level FlightAware Approximate
Thu 07:03:00 PM 70.2225 -110.5810 306° West  Level FlightAware Approximate
Thu 07:04:00 PM 70.3014 -110.9052 306° West  Level FlightAware Approximate
Thu 07:05:00 PM 70.3797 -111.2319 306° West  Level FlightAware Approximate
Thu 07:06:00 PM 70.4574 -111.5612 305° West  Level FlightAware Approximate
Thu 07:07:00 PM 70.5344 -111.8929 305° West  Level FlightAware Approximate
Thu 07:08:00 PM 70.6109 -112.2271 305° West  Level FlightAware Approximate
Thu 07:09:00 PM 70.6871 -112.5633 305° West  Level FlightAware Approximate
Thu 07:10:00 PM 70.7630 -112.9012 304° West  Level FlightAware Approximate
Thu 07:11:00 PM 70.8384 -113.2417 304° West  Level FlightAware Approximate
Thu 07:12:00 PM 70.9130 -113.5847 304° West  Level FlightAware Approximate
Thu 07:13:00 PM 70.9871 -113.9304 303° West  Level FlightAware Approximate
Thu 07:14:00 PM 71.0604 -114.2786 303° West  Level FlightAware Approximate
Thu 07:15:00 PM 71.1332 -114.6294 303° West  Level FlightAware Approximate
Thu 07:16:00 PM 71.2053 -114.9829 302° West  Level FlightAware Approximate
Thu 07:17:00 PM 71.2766 -115.3389 302° West  Level FlightAware Approximate
Thu 07:18:00 PM 71.3474 -115.6976 302° West  Level FlightAware Approximate
Thu 07:19:00 PM 71.4174 -116.0589 301° West  Level FlightAware Approximate
Thu 07:20:00 PM 71.4868 -116.4228 301° West  Level FlightAware Approximate
Thu 07:21:00 PM 71.5554 -116.7893 301° West  Level FlightAware Approximate
Thu 07:22:00 PM 71.6233 -117.1585 300° West  Level FlightAware Approximate
Thu 07:23:00 PM 71.6906 -117.5303 300° West  Level FlightAware Approximate
Thu 07:24:00 PM 71.7570 -117.9047 300° West  Level FlightAware Approximate
Thu 07:25:00 PM 71.8228 -118.2817 299° West  Level FlightAware Approximate
Thu 07:26:00 PM 71.8878 -118.6614 299° West  Level FlightAware Approximate
Thu 07:27:00 PM 71.9521 -119.0437 299° West  Level FlightAware Approximate
Thu 07:28:00 PM 72.0154 -119.4290 298° West  Level FlightAware Approximate
Thu 07:29:00 PM 72.0773 -119.8180 297° West  Level FlightAware Approximate
Thu 07:30:00 PM 72.1385 -120.2096 297° West  Level FlightAware Approximate
Thu 07:31:00 PM 72.1988 -120.6037 297° West  Level FlightAware Approximate
Thu 07:32:00 PM 72.2583 -121.0005 296° West  Level FlightAware Approximate
Thu 07:33:00 PM 72.3171 -121.3997 296° West  Level FlightAware Approximate
Thu 07:34:00 PM 72.3750 -121.8016 296° West  Level FlightAware Approximate
Thu 07:35:00 PM 72.4321 -122.2060 295° West  Level FlightAware Approximate
Thu 07:36:00 PM 72.4884 -122.6129 295° West  Level FlightAware Approximate
Thu 07:37:00 PM 72.5439 -123.0224 294° West  Level FlightAware Approximate
Thu 07:38:00 PM 72.5985 -123.4344 294° West  Level FlightAware Approximate
Thu 07:39:00 PM 72.6522 -123.8488 294° West  Level FlightAware Approximate
Thu 07:40:00 PM 72.7051 -124.2658 293° West  Level FlightAware Approximate
Thu 07:41:00 PM 72.7572 -124.6852 293° West  Level FlightAware Approximate
Thu 07:42:00 PM 72.8083 -125.1070 292° West  Level FlightAware Approximate
Thu 07:43:00 PM 72.8586 -125.5313 292° West  Level FlightAware Approximate
Thu 07:44:00 PM 72.9084 -125.9574 292° West  Level FlightAware Approximate
Thu 07:45:00 PM 72.9574 -126.3858 291° West  Level FlightAware Approximate
Thu 07:46:00 PM 73.0055 -126.8166 291° West  Level FlightAware Approximate
Thu 07:47:00 PM 73.0527 -127.2497 291° West  Level FlightAware Approximate
Thu 07:48:00 PM 73.0989 -127.6852 290° West  Level FlightAware Approximate
Thu 07:49:00 PM 73.1442 -128.1230 289° West  Level FlightAware Approximate
Thu 07:50:00 PM 73.1884 -128.5632 289° West  Level FlightAware Approximate
Thu 07:51:00 PM 73.2317 -129.0056 289° West  Level FlightAware Approximate
Thu 07:52:00 PM 73.2741 -129.4503 289° West  Level FlightAware Approximate
Thu 07:53:00 PM 73.3155 -129.8971 288° West  Level FlightAware Approximate
Thu 07:54:00 PM 73.3559 -130.3460 288° West  Level FlightAware Approximate
Thu 07:55:00 PM 73.3954 -130.7970 287° West  Level FlightAware Approximate
Thu 07:56:00 PM 73.4338 -131.2502 287° West  Level FlightAware Approximate
Thu 07:57:00 PM 73.4713 -131.7053 286° West  Level FlightAware Approximate
Thu 07:58:00 PM 73.5079 -132.1624 286° West  Level FlightAware Approximate
Thu 07:59:00 PM 73.5434 -132.6214 285° West  Level FlightAware Approximate
Thu 08:00:00 PM 73.5779 -133.0824 285° West  Level FlightAware Approximate
Thu 08:01:00 PM 73.6114 -133.5452 285° West  Level FlightAware Approximate
Thu 08:02:00 PM 73.6439 -134.0098 284° West  Level FlightAware Approximate
Thu 08:02:00 PM 74.0000 -130.0000 275° West 495 570 32,000  Level ETMS Enhanced Traffic Management System
Thu 08:02:53 PM 74.0000 -130.0000 275° West 495 570 32,000  Level ETMS Enhanced Traffic Management System
Thu 08:03:00 PM 73.6753 -134.4762 284° West  Level FlightAware Approximate
Thu 08:04:00 PM 73.7057 -134.9444 283° West  Level FlightAware Approximate
Thu 08:05:00 PM 73.7352 -135.4142 283° West  Level FlightAware Approximate
Thu 08:06:00 PM 73.7635 -135.8856 282° West  Level FlightAware Approximate
Thu 08:07:00 PM 73.7908 -136.3586 282° West  Level FlightAware Approximate
Thu 08:08:00 PM 74.0647 -133.9960 271° West 495 570 32,000  Level FlightAware Transoceanic
Thu 08:09:00 PM 74.0676 -134.4973 271° West 495 570 32,000  Level FlightAware Transoceanic
Thu 08:10:00 PM 74.0693 -134.9986 270° West 495 570 32,000  Level FlightAware Transoceanic
Thu 08:11:00 PM 74.0699 -135.5000 270° West 495 570 32,000  Level FlightAware Transoceanic
Thu 08:12:00 PM 74.0693 -136.0014 270° West 495 570 32,000  Level FlightAware Transoceanic
Thu 08:13:00 PM 74.0676 -136.5027 269° West 495 570 32,000  Level FlightAware Transoceanic
Thu 08:14:00 PM 74.0647 -137.0040 269° West 495 570 32,000  Level FlightAware Transoceanic
Thu 08:15:00 PM 74.0607 -137.5049 268° West 495 570 32,000  Level FlightAware Transoceanic
Thu 08:16:00 PM 74.0554 -138.0056 268° West 495 570 32,000  Level FlightAware Transoceanic
Thu 08:17:00 PM 74.0491 -138.5060 267° West 495 570 32,000  Level FlightAware Transoceanic
Thu 08:18:00 PM 74.0416 -139.0059 267° West 495 570 32,000  Level FlightAware Transoceanic
Thu 08:19:00 PM 74.0329 -139.5054 266° West 495 570 32,000  Level FlightAware Transoceanic
Thu 08:20:00 PM 74.0231 -140.0042 266° West 495 570 32,000  Level FlightAware Transoceanic
Thu 08:21:00 PM 74.0121 -140.5025 265° West 495 570 32,000 122 Level FlightAware Transoceanic
Thu 08:22:00 PM 74.0001 -140.9946 265° West  Level FlightAware Approximate
Thu 08:23:00 PM 73.9997 -141.0118 265° West  Level FlightAware Approximate
Thu 08:24:00 PM 73.9875 -141.5035 265° West  Level FlightAware Approximate
Thu 08:25:00 PM 73.9742 -141.9944 265° West  Level FlightAware Approximate
Thu 08:26:00 PM 73.9598 -142.4845 264° West  Level FlightAware Approximate
Thu 08:27:00 PM 73.9443 -142.9737 264° West  Level FlightAware Approximate
Thu 08:28:00 PM 73.9276 -143.4620 263° West  Level FlightAware Approximate
Thu 08:29:00 PM 74.0546 -132.9193 275° West  Level FlightAware Approximate
Thu 08:30:00 PM 74.0598 -133.4074 272° West  Level FlightAware Approximate
Thu 08:31:00 PM 74.0640 -133.8958 272° West  Level FlightAware Approximate
Thu 08:32:00 PM 74.0670 -134.3845 272° West  Level FlightAware Approximate
Thu 08:33:00 PM 74.0690 -134.8732 271° West  Level FlightAware Approximate
Thu 08:34:00 PM 74.0699 -135.3621 271° West  Level FlightAware Approximate
Thu 08:35:00 PM 74.0696 -135.8510 270° West  Level FlightAware Approximate
Thu 08:36:00 PM 74.0683 -136.3398 270° West  Level FlightAware Approximate
Thu 08:36:26 PM 73.7167 -148.0500 267° West 500 575 34,000  Level Anchorage Center
Thu 08:37:00 PM 74.0658 -136.8286 269° West  Level FlightAware Approximate
Thu 08:37:26 PM 73.6833 -148.5667 257° West 520 598 34,000  Level Anchorage Center
Thu 08:38:00 PM 74.0623 -137.3171 269° West  Level FlightAware Approximate
Thu 08:38:26 PM 73.6500 -149.0500 256° West 520 598 34,000  Level Anchorage Center
Thu 08:39:00 PM 74.0577 -137.8054 268° West  Level FlightAware Approximate
Thu 08:39:26 PM 73.6167 -149.5333 256° West 510 587 34,000  Level Anchorage Center
Thu 08:40:00 PM 74.0519 -138.2934 268° West  Level FlightAware Approximate
Thu 08:40:26 PM 73.5833 -150.0000 256° West 500 575 34,000  Level Anchorage Center
Thu 08:41:00 PM 74.0451 -138.7810 267° West  Level FlightAware Approximate
Thu 08:41:26 PM 73.5667 -150.5000 264° West 510 587 34,000  Level Anchorage Center
Thu 08:42:26 PM 73.5333 -150.9833 257° West 510 587 34,000  Level Anchorage Center
Thu 08:43:26 PM 73.4833 -151.4500 250° West 510 587 34,000  Level Anchorage Center
Thu 08:44:26 PM 73.4500 -151.9167 256° West 500 575 34,000  Level Anchorage Center
Thu 08:45:26 PM 73.4167 -152.3833 256° West 520 598 34,000  Level Anchorage Center
Thu 08:47:27 PM 73.3500 -153.3167 256° West 500 575 34,000  Level Anchorage Center
Thu 08:48:26 PM 73.3000 -153.7833 250° West 510 587 34,000  Level Anchorage Center
Thu 08:49:26 PM 73.2667 -154.2333 256° West 500 575 34,000  Level Anchorage Center
Thu 08:50:26 PM 73.2167 -154.7000 250° West 500 575 34,000  Level Anchorage Center
Thu 08:51:27 PM 73.1833 -155.1500 256° West 510 587 34,000  Level Anchorage Center
Thu 08:52:27 PM 73.1333 -155.6000 249° West 510 587 34,000  Level Anchorage Center
Thu 08:53:27 PM 73.0833 -156.0500 249° West 500 575 34,000  Level Anchorage Center
Thu 08:54:27 PM 73.0500 -156.5000 256° West 500 575 34,000  Level Anchorage Center
Thu 08:55:27 PM 73.0000 -156.9500 249° West 510 587 34,000  Level Anchorage Center
Thu 08:56:27 PM 72.9667 -157.4000 256° West 490 564 34,000  Level Anchorage Center
Thu 08:57:27 PM 72.9500 -157.8667 263° West 510 587 34,000  Level Anchorage Center
Thu 08:58:27 PM 72.9167 -158.3167 256° West 490 564 34,000  Level Anchorage Center
Thu 08:59:27 PM 72.9000 -158.7833 263° West 500 575 34,000  Level Anchorage Center
Thu 09:00:27 PM 72.8667 -159.2333 256° West 500 575 34,000  Level Anchorage Center
Thu 09:01:27 PM 72.8333 -159.7000 257° West 510 587 34,000  Level Anchorage Center
Thu 09:02:28 PM 72.8167 -160.1500 263° West 510 587 34,000  Level Anchorage Center
Thu 09:03:27 PM 72.7833 -160.6167 257° West 500 575 34,000  Level Anchorage Center
Thu 09:04:27 PM 72.7500 -161.0667 256° West 500 575 34,000  Level Anchorage Center
Thu 09:05:28 PM 72.7167 -161.5167 256° West 510 587 34,000  Level Anchorage Center
Thu 09:06:28 PM 72.6833 -161.9667 256° West 500 575 34,000  Level Anchorage Center
Thu 09:07:28 PM 72.6500 -162.4167 256° West 500 575 34,000  Level Anchorage Center
Thu 09:08:28 PM 72.6167 -162.8833 257° West 500 575 34,000  Level Anchorage Center
Thu 09:09:28 PM 72.5667 -163.3333 250° West 510 587 34,000  Level Anchorage Center
Thu 09:10:28 PM 72.5333 -163.7833 256° West 510 587 34,000  Level Anchorage Center
Thu 09:11:28 PM 72.5000 -164.2333 256° West 510 587 34,000  Level Anchorage Center
Thu 09:12:28 PM 72.4500 -164.6667 249° West 510 587 34,000  Level Anchorage Center
Thu 09:13:29 PM 72.4167 -165.1167 256° West 510 587 34,000  Level Anchorage Center
Thu 09:15:28 PM 72.3167 -165.9833 250° West 510 587 34,000  Level Anchorage Center
Thu 09:16:29 PM 72.2833 -166.4167 256° West 500 575 34,000  Level Anchorage Center
Thu 09:17:29 PM 72.2333 -166.8500 249° West 510 587 34,000  Level Anchorage Center
Thu 09:18:29 PM 72.1833 -167.2833 250° West 510 587 34,000  Level Anchorage Center
Thu 09:19:29 PM 72.1333 -167.7167 250° West 510 587 34,000 17 Level Anchorage Center
Thu 09:21:00 PM 72.0674 -168.3460 251° West  Level FlightAware Approximate
Thu 09:28:00 PM 71.8726 -171.3184 261° West  Level FlightAware Approximate
Thu 09:29:00 PM 71.8464 -171.7429 259° West  Level FlightAware Approximate
Thu 09:30:00 PM 71.8192 -172.1661 259° West  Level FlightAware Approximate
Thu 09:31:00 PM 71.7911 -172.5881 258° West  Level FlightAware Approximate
Thu 09:32:00 PM 71.7621 -173.0088 258° West  Level FlightAware Approximate
Thu 09:33:00 PM 71.7322 -173.4282 257° West  Level FlightAware Approximate
Thu 09:34:00 PM 71.7014 -173.8463 257° West  Level FlightAware Approximate
Thu 09:35:00 PM 71.6696 -174.2630 257° West  Level FlightAware Approximate
Thu 09:36:00 PM 71.6370 -174.6783 256° West  Level FlightAware Approximate
Thu 09:37:00 PM 71.6034 -175.0921 256° West  Level FlightAware Approximate
Thu 09:38:00 PM 71.5690 -175.5044 255° West  Level FlightAware Approximate
Thu 09:39:00 PM 71.5337 -175.9153 255° West  Level FlightAware Approximate
Thu 09:40:00 PM 71.4975 -176.3246 255° West  Level FlightAware Approximate
Thu 09:41:00 PM 71.4604 -176.7324 254° West  Level FlightAware Approximate
Thu 09:42:00 PM 71.4225 -177.1385 254° West  Level FlightAware Approximate
Thu 09:43:00 PM 71.3513 -177.4938 235° Southwest  Level FlightAware Approximate
Thu 09:44:00 PM 71.2738 -177.8376 235° Southwest  Level FlightAware Approximate
Thu 09:45:00 PM 71.1956 -178.1786 235° Southwest  Level FlightAware Approximate
Thu 09:46:00 PM 71.1168 -178.5170 234° Southwest  Level FlightAware Approximate
Thu 09:47:00 PM 71.0374 -178.8526 234° Southwest  Level FlightAware Approximate
Thu 09:48:00 PM 70.9573 -179.1854 234° Southwest  Level FlightAware Approximate
Thu 09:49:00 PM 70.8767 -179.5156 233° Southwest  Level FlightAware Approximate
Thu 09:50:00 PM 70.7955 -179.8431 233° Southwest  Level FlightAware Approximate
Thu 09:51:00 PM 70.7138 179.8320 233° Southwest  Level FlightAware Approximate
Thu 09:52:00 PM 70.6314 179.5098 232° Southwest  Level FlightAware Approximate
Thu 09:53:00 PM 70.5485 179.1902 232° Southwest  Level FlightAware Approximate
Thu 09:54:00 PM 70.4651 178.8733 232° Southwest  Level FlightAware Approximate
Thu 09:55:00 PM 70.3811 178.5589 232° Southwest  Level FlightAware Approximate
Thu 09:56:00 PM 70.2965 178.2472 231° Southwest  Level FlightAware Approximate
Thu 09:57:00 PM 70.2114 177.9380 231° Southwest  Level FlightAware Approximate
Thu 09:58:00 PM 70.1258 177.6313 231° Southwest  Level FlightAware Approximate
Thu 09:59:00 PM 70.0397 177.3272 230° Southwest  Level FlightAware Approximate
Thu 10:00:00 PM 69.9530 177.0256 230° Southwest  Level FlightAware Approximate
Thu 10:01:00 PM 69.8659 176.7265 230° Southwest  Level FlightAware Approximate
Thu 10:02:00 PM 69.7782 176.4299 230° Southwest  Level FlightAware Approximate
Thu 10:03:00 PM 69.6901 176.1357 229° Southwest  Level FlightAware Approximate
Thu 10:04:00 PM 69.6015 175.8440 229° Southwest  Level FlightAware Approximate
Thu 10:05:00 PM 69.5124 175.5547 229° Southwest  Level FlightAware Approximate
Thu 10:06:00 PM 69.4228 175.2677 228° Southwest  Level FlightAware Approximate
Thu 10:07:00 PM 69.3327 174.9832 228° Southwest  Level FlightAware Approximate
Thu 10:08:00 PM 69.2435 174.7052 228° Southwest  Level FlightAware Approximate
Thu 10:09:00 PM 69.1539 174.4294 228° Southwest  Level FlightAware Approximate
Thu 10:10:00 PM 69.0638 174.1559 227° Southwest  Level FlightAware Approximate
Thu 10:11:00 PM 68.9733 173.8846 227° Southwest  Level FlightAware Approximate
Thu 10:12:00 PM 68.8822 173.6159 226° Southwest  Level FlightAware Approximate
Thu 10:13:00 PM 68.7904 173.3502 226° Southwest  Level FlightAware Approximate
Thu 10:14:00 PM 68.6983 173.0866 226° Southwest  Level FlightAware Approximate
Thu 10:15:00 PM 68.6057 172.8251 226° Southwest  Level FlightAware Approximate
Thu 10:16:00 PM 68.5127 172.5659 226° Southwest  Level FlightAware Approximate
Thu 10:17:00 PM 68.4193 172.3087 225° Southwest  Level FlightAware Approximate
Thu 10:18:00 PM 68.3256 172.0537 225° Southwest  Level FlightAware Approximate
Thu 10:19:00 PM 68.2314 171.8008 225° Southwest  Level FlightAware Approximate
Thu 10:20:00 PM 68.1369 171.5500 225° Southwest  Level FlightAware Approximate
Thu 10:21:00 PM 68.0419 171.3012 224° Southwest  Level FlightAware Approximate
Thu 10:22:00 PM 67.9467 171.0544 224° Southwest  Level FlightAware Approximate
Thu 10:23:00 PM 67.8510 170.8097 224° Southwest  Level FlightAware Approximate
Thu 10:24:00 PM 67.7550 170.5670 224° Southwest  Level FlightAware Approximate
Thu 10:25:00 PM 67.6586 170.3262 224° Southwest  Level FlightAware Approximate
Thu 10:26:00 PM 67.5619 170.0875 223° Southwest  Level FlightAware Approximate
Thu 10:27:00 PM 67.4648 169.8506 223° Southwest  Level FlightAware Approximate
Thu 10:28:00 PM 67.3674 169.6157 223° Southwest  Level FlightAware Approximate
Thu 10:29:00 PM 67.2696 169.3828 223° Southwest  Level FlightAware Approximate
Thu 10:30:00 PM 67.1715 169.1517 222° Southwest  Level FlightAware Approximate
Thu 10:31:00 PM 67.0731 168.9224 222° Southwest  Level FlightAware Approximate
Thu 10:32:00 PM 66.9744 168.6951 222° Southwest  Level FlightAware Approximate
Thu 10:33:00 PM 66.8753 168.4696 222° Southwest  Level FlightAware Approximate
Thu 10:34:00 PM 66.7760 168.2455 222° Southwest  Level FlightAware Approximate
Thu 10:35:00 PM 66.6765 168.0232 222° Southwest  Level FlightAware Approximate
Thu 10:36:00 PM 66.5766 167.8026 221° Southwest  Level FlightAware Approximate
Thu 10:37:00 PM 66.4764 167.5839 221° Southwest  Level FlightAware Approximate
Thu 10:38:00 PM 66.3760 167.3669 221° Southwest  Level FlightAware Approximate
Thu 10:39:00 PM 66.2752 167.1516 221° Southwest  Level FlightAware Approximate
Thu 10:40:00 PM 66.1741 166.9381 221° Southwest  Level FlightAware Approximate
Thu 10:41:00 PM 66.0727 166.7262 220° Southwest  Level FlightAware Approximate
Thu 10:42:00 PM 65.9711 166.5161 220° Southwest  Level FlightAware Approximate
Thu 10:43:00 PM 65.8691 166.3076 220° Southwest  Level FlightAware Approximate
Thu 10:44:00 PM 65.7669 166.1008 220° Southwest  Level FlightAware Approximate
Thu 10:45:00 PM 65.6644 165.8956 219° Southwest  Level FlightAware Approximate
Thu 10:46:00 PM 65.5615 165.6924 219° Southwest  Level FlightAware Approximate
Thu 10:47:00 PM 65.4584 165.4908 219° Southwest  Level FlightAware Approximate
Thu 10:48:00 PM 65.3549 165.2908 219° Southwest  Level FlightAware Approximate
Thu 10:49:00 PM 65.2512 165.0924 219° Southwest  Level FlightAware Approximate
Thu 10:50:00 PM 65.1472 164.8955 219° Southwest  Level FlightAware Approximate
Thu 10:51:00 PM 65.0430 164.7002 218° Southwest  Level FlightAware Approximate
Thu 10:52:00 PM 64.9386 164.5064 218° Southwest  Level FlightAware Approximate
Thu 10:53:00 PM 64.8338 164.3141 218° Southwest  Level FlightAware Approximate
Thu 10:54:00 PM 64.7289 164.1233 218° Southwest  Level FlightAware Approximate
Thu 10:55:00 PM 64.6237 163.9339 218° Southwest  Level FlightAware Approximate
Thu 10:56:00 PM 64.5182 163.7461 217° Southwest  Level FlightAware Approximate
Thu 10:57:00 PM 64.4125 163.5597 217° Southwest  Level FlightAware Approximate
Thu 10:58:00 PM 64.3064 163.3744 217° Southwest  Level FlightAware Approximate
Thu 10:59:00 PM 64.2001 163.1906 217° Southwest  Level FlightAware Approximate
Thu 11:00:00 PM 64.0936 163.0082 217° Southwest  Level FlightAware Approximate
Thu 11:01:00 PM 63.9869 162.8272 217° Southwest  Level FlightAware Approximate
Thu 11:02:00 PM 63.8799 162.6476 217° Southwest  Level FlightAware Approximate
Thu 11:03:00 PM 63.7727 162.4693 216° Southwest  Level FlightAware Approximate
Thu 11:04:00 PM 63.6653 162.2924 216° Southwest  Level FlightAware Approximate
Thu 11:05:00 PM 63.5576 162.1168 216° Southwest  Level FlightAware Approximate
Thu 11:06:00 PM 63.4498 161.9425 216° Southwest  Level FlightAware Approximate
Thu 11:07:00 PM 63.3417 161.7696 216° Southwest  Level FlightAware Approximate
Thu 11:08:00 PM 63.2335 161.5979 216° Southwest  Level FlightAware Approximate
Thu 11:09:00 PM 63.1251 161.4271 216° Southwest  Level FlightAware Approximate
Thu 11:10:00 PM 63.0171 161.2560 216° Southwest  Level FlightAware Approximate
Thu 11:11:00 PM 62.9089 161.0861 216° Southwest  Level FlightAware Approximate
Thu 11:12:00 PM 62.8004 160.9176 215° Southwest  Level FlightAware Approximate
Thu 11:13:00 PM 62.6918 160.7502 215° Southwest  Level FlightAware Approximate
Thu 11:14:00 PM 62.5830 160.5841 215° Southwest  Level FlightAware Approximate
Thu 11:15:00 PM 62.4739 160.4192 215° Southwest  Level FlightAware Approximate
Thu 11:16:00 PM 62.3645 160.2560 214° Southwest  Level FlightAware Approximate
Thu 11:17:00 PM 62.2542 160.0965 214° Southwest  Level FlightAware Approximate
Thu 11:18:00 PM 62.1436 159.9381 214° Southwest  Level FlightAware Approximate
Thu 11:19:00 PM 62.0329 159.7808 214° Southwest  Level FlightAware Approximate
Thu 11:20:00 PM 61.9220 159.6248 214° Southwest  Level FlightAware Approximate
Thu 11:21:00 PM 61.8110 159.4698 213° Southwest  Level FlightAware Approximate
Thu 11:22:00 PM 61.6997 159.3159 213° Southwest  Level FlightAware Approximate
Thu 11:23:00 PM 61.5883 159.1632 213° Southwest  Level FlightAware Approximate
Thu 11:24:00 PM 61.4767 159.0116 213° Southwest  Level FlightAware Approximate
Thu 11:25:00 PM 61.3650 158.8610 213° Southwest  Level FlightAware Approximate
Thu 11:26:00 PM 61.2531 158.7115 213° Southwest  Level FlightAware Approximate
Thu 11:27:00 PM 61.1410 158.5631 213° Southwest  Level FlightAware Approximate
Thu 11:28:00 PM 61.0287 158.4158 212° Southwest  Level FlightAware Approximate
Thu 11:29:00 PM 60.9167 158.2681 213° Southwest  Level FlightAware Approximate
Thu 11:30:00 PM 60.8046 158.1214 213° Southwest  Level FlightAware Approximate
Thu 11:31:00 PM 60.6923 157.9757 212° Southwest  Level FlightAware Approximate
Thu 11:32:00 PM 60.5799 157.8310 212° Southwest  Level FlightAware Approximate
Thu 11:33:00 PM 60.4673 157.6873 212° Southwest  Level FlightAware Approximate
Thu 11:34:00 PM 60.3546 157.5446 212° Southwest  Level FlightAware Approximate
Thu 11:35:00 PM 60.2417 157.4029 212° Southwest  Level FlightAware Approximate
Thu 11:36:00 PM 60.1287 157.2621 212° Southwest  Level FlightAware Approximate
Thu 11:37:00 PM 60.0155 157.1224 212° Southwest  Level FlightAware Approximate
Thu 11:38:00 PM 59.9021 156.9835 212° Southwest  Level FlightAware Approximate
Thu 11:39:00 PM 59.7886 156.8457 211° Southwest  Level FlightAware Approximate
Thu 11:40:00 PM 59.6750 156.7087 211° Southwest  Level FlightAware Approximate
Thu 11:41:00 PM 59.5612 156.5727 211° Southwest  Level FlightAware Approximate
Thu 11:42:00 PM 59.4473 156.4376 211° Southwest  Level FlightAware Approximate
Thu 11:43:00 PM 59.3333 156.3034 211° Southwest  Level FlightAware Approximate
Thu 11:44:00 PM 59.2191 156.1701 211° Southwest  Level FlightAware Approximate
Thu 11:45:00 PM 59.1048 156.0377 211° Southwest  Level FlightAware Approximate
Thu 11:46:00 PM 58.9903 155.9062 211° Southwest  Level FlightAware Approximate
Thu 11:47:00 PM 58.8758 155.7755 211° Southwest  Level FlightAware Approximate
Thu 11:48:00 PM 58.7610 155.6457 210° Southwest  Level FlightAware Approximate
Thu 11:49:00 PM 58.6462 155.5168 210° Southwest  Level FlightAware Approximate
Thu 11:50:00 PM 58.5312 155.3887 210° Southwest  Level FlightAware Approximate
Thu 11:51:00 PM 58.4161 155.2614 210° Southwest  Level FlightAware Approximate
Thu 11:52:00 PM 58.3009 155.1350 210° Southwest  Level FlightAware Approximate
Thu 11:53:00 PM 58.1856 155.0094 210° Southwest  Level FlightAware Approximate
Thu 11:54:00 PM 58.0701 154.8846 210° Southwest  Level FlightAware Approximate
Thu 11:55:00 PM 57.9545 154.7607 210° Southwest  Level FlightAware Approximate
Thu 11:56:00 PM 57.8388 154.6375 210° Southwest  Level FlightAware Approximate
Thu 11:57:00 PM 57.7229 154.5151 209° Southwest  Level FlightAware Approximate
Thu 11:58:00 PM 57.6070 154.3935 209° Southwest  Level FlightAware Approximate
Thu 11:59:00 PM 57.4910 154.2726 209° Southwest  Level FlightAware Approximate
Fri 12:00:00 AM 57.3748 154.1523 209° Southwest  Level FlightAware Approximate
Fri 12:01:00 AM 57.2586 154.0329 209° Southwest  Level FlightAware Approximate
Fri 12:02:00 AM 57.1422 153.9142 209° Southwest  Level FlightAware Approximate
Fri 12:03:00 AM 57.0257 153.7962 209° Southwest  Level FlightAware Approximate
Fri 12:04:00 AM 56.9092 153.6789 209° Southwest  Level FlightAware Approximate
Fri 12:05:00 AM 56.7925 153.5624 209° Southwest  Level FlightAware Approximate
Fri 12:06:00 AM 56.6757 153.4467 209° Southwest  Level FlightAware Approximate
Fri 12:07:00 AM 56.5588 153.3316 208° Southwest  Level FlightAware Approximate
Fri 12:08:00 AM 56.4418 153.2172 208° Southwest  Level FlightAware Approximate
Fri 12:09:00 AM 56.3246 153.1036 208° Southwest  Level FlightAware Approximate
Fri 12:10:00 AM 56.2074 152.9906 208° Southwest  Level FlightAware Approximate
Fri 12:11:00 AM 56.0901 152.8783 208° Southwest  Level FlightAware Approximate
Fri 12:12:00 AM 55.9727 152.7668 208° Southwest  Level FlightAware Approximate
Fri 12:13:00 AM 55.8551 152.6559 208° Southwest  Level FlightAware Approximate
Fri 12:14:00 AM 55.7373 152.5463 208° Southwest  Level FlightAware Approximate
Fri 12:15:00 AM 55.6194 152.4373 208° Southwest  Level FlightAware Approximate
Fri 12:16:00 AM 55.5015 152.3289 207° Southwest  Level FlightAware Approximate
Fri 12:17:00 AM 55.3834 152.2213 207° Southwest  Level FlightAware Approximate
Fri 12:18:00 AM 55.2652 152.1142 207° Southwest  Level FlightAware Approximate
Fri 12:19:00 AM 55.1469 152.0078 207° Southwest  Level FlightAware Approximate
Fri 12:20:00 AM 55.0286 151.9020 207° Southwest  Level FlightAware Approximate
Fri 12:21:00 AM 54.9101 151.7969 207° Southwest  Level FlightAware Approximate
Fri 12:22:00 AM 54.7915 151.6923 207° Southwest  Level FlightAware Approximate
Fri 12:23:00 AM 54.6729 151.5884 207° Southwest  Level FlightAware Approximate
Fri 12:24:00 AM 54.5542 151.4851 207° Southwest  Level FlightAware Approximate
Fri 12:25:00 AM 54.4352 151.3822 207° Southwest  Level FlightAware Approximate
Fri 12:26:00 AM 54.3162 151.2800 207° Southwest  Level FlightAware Approximate
Fri 12:27:00 AM 54.1970 151.1783 207° Southwest  Level FlightAware Approximate
Fri 12:28:00 AM 54.0779 151.0769 207° Southwest  Level FlightAware Approximate
Fri 12:29:00 AM 53.9586 150.9761 206° Southwest  Level FlightAware Approximate
Fri 12:30:00 AM 53.8393 150.8759 206° Southwest  Level FlightAware Approximate
Fri 12:31:00 AM 53.7199 150.7762 206° Southwest  Level FlightAware Approximate
Fri 12:32:00 AM 53.6005 150.6771 206° Southwest  Level FlightAware Approximate
Fri 12:33:00 AM 53.4809 150.5786 206° Southwest  Level FlightAware Approximate
Fri 12:34:00 AM 53.3613 150.4806 206° Southwest  Level FlightAware Approximate
Fri 12:35:00 AM 53.2416 150.3831 206° Southwest  Level FlightAware Approximate
Fri 12:36:00 AM 53.1217 150.2863 206° Southwest  Level FlightAware Approximate
Fri 12:37:00 AM 53.0019 150.1899 206° Southwest  Level FlightAware Approximate
Fri 12:38:00 AM 52.8819 150.0941 206° Southwest  Level FlightAware Approximate
Fri 12:39:00 AM 52.7619 149.9988 206° Southwest  Level FlightAware Approximate
Fri 12:40:00 AM 52.6418 149.9040 206° Southwest  Level FlightAware Approximate
Fri 12:41:00 AM 52.5216 149.8097 206° Southwest  Level FlightAware Approximate
Fri 12:42:00 AM 52.4014 149.7160 205° Southwest  Level FlightAware Approximate
Fri 12:43:00 AM 52.2810 149.6228 205° Southwest  Level FlightAware Approximate
Fri 12:44:00 AM 52.1606 149.5300 205° Southwest  Level FlightAware Approximate
Fri 12:45:00 AM 52.0402 149.4378 205° Southwest  Level FlightAware Approximate
Fri 12:46:00 AM 51.9196 149.3461 205° Southwest  Level FlightAware Approximate
Fri 12:47:00 AM 51.7990 149.2549 205° Southwest  Level FlightAware Approximate
Fri 12:48:00 AM 51.6783 149.1641 205° Southwest  Level FlightAware Approximate
Fri 12:49:00 AM 51.5576 149.0738 205° Southwest  Level FlightAware Approximate
Fri 12:50:00 AM 51.4367 148.9841 205° Southwest  Level FlightAware Approximate
Fri 12:51:00 AM 51.3158 148.8947 205° Southwest  Level FlightAware Approximate
Fri 12:52:00 AM 51.1949 148.8059 205° Southwest  Level FlightAware Approximate
Fri 12:53:00 AM 51.0739 148.7175 205° Southwest  Level FlightAware Approximate
Fri 12:54:00 AM 50.9528 148.6296 205° Southwest  Level FlightAware Approximate
Fri 12:55:00 AM 50.8316 148.5421 205° Southwest  Level FlightAware Approximate
Fri 12:56:00 AM 50.7104 148.4551 204° Southwest  Level FlightAware Approximate
Fri 12:57:00 AM 50.5891 148.3686 204° Southwest  Level FlightAware Approximate
Fri 12:58:00 AM 50.4678 148.2825 204° Southwest  Level FlightAware Approximate
Fri 12:59:00 AM 50.3463 148.1968 204° Southwest  Level FlightAware Approximate
Fri 01:00:00 AM 50.2248 148.1116 204° Southwest  Level FlightAware Approximate
Fri 01:01:00 AM 50.1033 148.0267 204° Southwest  Level FlightAware Approximate
Fri 01:02:00 AM 49.9817 147.9424 204° Southwest  Level FlightAware Approximate
Fri 01:03:00 AM 49.8601 147.8584 204° Southwest  Level FlightAware Approximate
Fri 01:04:00 AM 49.7383 147.7749 204° Southwest  Level FlightAware Approximate
Fri 01:05:00 AM 49.6166 147.6918 204° Southwest  Level FlightAware Approximate
Fri 01:06:00 AM 49.4947 147.6091 204° Southwest  Level FlightAware Approximate
Fri 01:07:00 AM 49.3728 147.5268 204° Southwest  Level FlightAware Approximate
Fri 01:08:00 AM 49.2509 147.4449 204° Southwest  Level FlightAware Approximate
Fri 01:09:00 AM 49.1288 147.3635 204° Southwest  Level FlightAware Approximate
Fri 01:10:00 AM 49.0066 147.2828 203° Southwest  Level FlightAware Approximate
Fri 01:11:00 AM 48.8840 147.2038 203° Southwest  Level FlightAware Approximate
Fri 01:12:00 AM 48.7614 147.1252 203° Southwest  Level FlightAware Approximate
Fri 01:13:00 AM 48.6387 147.0470 203° Southwest  Level FlightAware Approximate
Fri 01:14:00 AM 48.5159 146.9692 203° Southwest  Level FlightAware Approximate
Fri 01:15:00 AM 48.3931 146.8918 203° Southwest  Level FlightAware Approximate
Fri 01:16:00 AM 48.2705 146.8138 204° Southwest  Level FlightAware Approximate
Fri 01:17:00 AM 48.1485 146.7335 204° Southwest  Level FlightAware Approximate
Fri 01:18:00 AM 48.0266 146.6536 204° Southwest  Level FlightAware Approximate
Fri 01:19:00 AM 47.9046 146.5741 204° Southwest  Level FlightAware Approximate
Fri 01:20:00 AM 47.7825 146.4949 204° Southwest  Level FlightAware Approximate
Fri 01:20:42 AM 47.4880 141.9680 203° Southwest 530 610 38,000  Level FlightAware ADS-B
Fri 01:21:00 AM 47.6604 146.4162 203° Southwest  Level FlightAware Approximate
Fri 01:21:22 AM 47.3870 141.9570 184° South 528 608 38,000  Level FlightAware ADS-B
Fri 01:22:07 AM 47.2760 141.9450 184° South 516 594 38,000  Level FlightAware ADS-B
Fri 01:22:47 AM 47.1840 141.9350 184° South 513 590 38,000  Level FlightAware ADS-B
Fri 01:23:27 AM 47.0840 141.9240 184° South 515 593 38,000  Level FlightAware ADS-B
Fri 01:24:12 AM 46.9790 141.9130 184° South 501 577 38,000  Level FlightAware ADS-B
Fri 01:24:52 AM 46.8870 141.9040 184° South 498 573 38,000  Level FlightAware ADS-B
Fri 01:25:37 AM 46.7800 141.8930 184° South 501 577 38,000  Level FlightAware ADS-B
Fri 01:26:17 AM 46.6900 141.8830 184° South 498 573 38,000  Level FlightAware ADS-B
Fri 01:26:57 AM 46.5970 141.8740 184° South 497 572 38,000  Level FlightAware ADS-B
Fri 01:27:42 AM 46.4940 141.8630 184° South 487 560 38,000  Level FlightAware ADS-B
Fri 01:28:22 AM 46.4030 141.8530 184° South 487 560 38,000  Level FlightAware ADS-B
Fri 01:29:07 AM 46.3000 141.8430 184° South 496 571 38,000  Level FlightAware ADS-B
Fri 01:29:47 AM 46.2090 141.8330 184° South 496 571 38,000  Level FlightAware ADS-B
Fri 01:30:27 AM 46.1160 141.8230 184° South 497 572 38,000  Level FlightAware ADS-B
Fri 01:31:12 AM 46.0150 141.8130 184° South 496 571 38,000  Level FlightAware ADS-B
Fri 01:31:52 AM 45.9190 141.8030 184° South 496 571 38,000  Level FlightAware ADS-B
Fri 01:32:37 AM 45.8190 141.7920 184° South 496 571 38,000  Level FlightAware ADS-B
Fri 01:33:17 AM 45.7290 141.7830 184° South 498 573 38,000  Level FlightAware ADS-B
Fri 01:33:52 AM 45.6470 141.7750 184° South 501 577 38,000  Level FlightAware ADS-B
Fri 01:34:42 AM 45.5360 141.7640 184° South 500 575 38,000  Level FlightAware ADS-B
Fri 01:35:22 AM 45.4420 141.7550 184° South 515 593 38,000  Level FlightAware ADS-B
Fri 01:36:07 AM 45.3300 141.7460 183° South 516 594 38,000  Level FlightAware ADS-B
Fri 01:36:47 AM 45.2330 141.7410 182° South 517 595 38,000  Level FlightAware ADS-B
Fri 01:37:27 AM 45.1370 141.7400 180° South 512 589 38,000  Level FlightAware ADS-B
Fri 01:38:12 AM 45.0390 141.7390 180° South 512 589 38,000  Level FlightAware ADS-B
Fri 01:38:52 AM 44.9340 141.7380 180° South 512 589 38,000  Level FlightAware ADS-B
Fri 01:39:32 AM 44.8360 141.7360 181° South 517 595 38,000  Level FlightAware ADS-B
Fri 01:40:12 AM 44.7370 141.7340 181° South 513 590 38,000  Level FlightAware ADS-B
Fri 01:40:57 AM 44.6380 141.7320 181° South 501 577 38,000  Level FlightAware ADS-B
Fri 01:41:42 AM 44.5300 141.7300 181° South 499 574 38,000  Level FlightAware ADS-B
Fri 01:42:22 AM 44.4340 141.7290 180° South 498 573 38,000  Level FlightAware ADS-B
Fri 01:43:02 AM 44.3400 141.7280 180° South 497 572 38,000  Level FlightAware ADS-B
Fri 01:43:47 AM 44.2350 141.7260 181° South 497 572 38,000  Level FlightAware ADS-B
Fri 01:44:27 AM 44.1430 141.7240 181° South 498 573 38,000  Level FlightAware ADS-B
Fri 01:45:12 AM 44.0360 141.7230 180° South 499 574 38,000  Level FlightAware ADS-B
Fri 01:45:52 AM 43.9440 141.7210 181° South 502 578 38,000  Level FlightAware ADS-B
Fri 01:46:32 AM 43.8470 141.7200 180° South 511 588 38,000  Level FlightAware ADS-B
Fri 01:49:00 AM 43.5215 141.6597 188° South  Level Estimated
Fri 01:50:00 AM 43.3896 141.6354 188° South  Level Estimated
Fri 01:50:27 AM 43.2990 141.7120 188° South 513 590 38,000  Level FlightAware ADS-B
Fri 01:51:42 AM 43.1210 141.7090 181° South 512 589 38,000  Level FlightAware ADS-B
Fri 01:54:00 AM 42.8180 141.6485 188° South  Level Estimated
Fri 01:54:02 AM 42.7870 141.7050 188° South 502 578 38,000  Level FlightAware ADS-B
Fri 01:54:42 AM 42.6940 141.7040 180° South 502 578 38,000  Level FlightAware ADS-B
Fri 01:55:22 AM 42.6000 141.7020 181° South 502 578 38,000  Level FlightAware ADS-B
Fri 01:56:07 AM 42.4920 141.7010 180° South 500 575 38,000  Level FlightAware ADS-B
Fri 01:56:52 AM 42.3880 141.7000 180° South 498 573 38,000  Level FlightAware ADS-B
Fri 01:57:32 AM 42.2940 141.6990 180° South 496 571 38,000  Level FlightAware ADS-B
Fri 01:58:17 AM 42.1880 141.6980 180° South 502 578 38,000  Level FlightAware ADS-B
Fri 01:58:57 AM 42.0950 141.6960 181° South 501 577 38,000  Level FlightAware ADS-B
Fri 01:59:37 AM 42.0000 141.6950 180° South 501 577 38,000  Level FlightAware ADS-B
Fri 02:00:22 AM 41.8940 141.6920 181° South 498 573 38,000  Level FlightAware ADS-B
Fri 02:01:02 AM 41.8020 141.6790 186° South 487 560 38,000  Level FlightAware ADS-B
Fri 02:01:47 AM 41.7000 141.6630 187° South 486 559 38,000  Level FlightAware ADS-B
Fri 02:02:27 AM 41.6100 141.6490 187° South 483 556 38,000  Level FlightAware ADS-B
Fri 02:03:07 AM 41.5180 141.6350 187° South 482 555 38,000  Level FlightAware ADS-B
Fri 02:03:52 AM 41.4190 141.6200 186° South 489 563 38,000  Level FlightAware ADS-B
Fri 02:04:32 AM 41.3270 141.6060 187° South 489 563 38,000  Level FlightAware ADS-B
Fri 02:05:12 AM 41.2360 141.5920 187° South 488 562 38,000  Level FlightAware ADS-B
Fri 02:05:57 AM 41.1340 141.5760 187° South 489 563 38,000  Level FlightAware ADS-B
Fri 02:06:37 AM 41.0450 141.5630 186° South 488 562 38,000  Level FlightAware ADS-B
Fri 02:07:32 AM 40.9330 141.5460 187° South 489 563 38,000  Level FlightAware ADS-B
Fri 02:08:17 AM 40.8330 141.5310 186° South 489 563 38,000  Level FlightAware ADS-B
Fri 02:08:57 AM 40.7350 141.5170 186° South 488 562 38,000  Level FlightAware ADS-B
Fri 02:09:42 AM 40.6320 141.5020 186° South 486 559 38,000  Level FlightAware ADS-B
Fri 02:10:22 AM 40.5510 141.4900 186° South 488 562 38,000  Level FlightAware ADS-B
Fri 02:11:02 AM 40.4570 141.4760 186° South 488 562 38,000  Level FlightAware ADS-B
Fri 02:11:42 AM 40.3710 141.4640 186° South 488 562 38,000  Level FlightAware ADS-B
Fri 02:12:42 AM 40.2280 141.4420 187° South 488 562 38,000  Level FlightAware ADS-B
Fri 02:13:27 AM 40.1340 141.4290 186° South 488 562 38,000  Level FlightAware ADS-B
Fri 02:14:22 AM 40.0060 141.4100 186° South 487 560 38,000  Level FlightAware ADS-B
Fri 02:14:42 AM 39.9690 141.4050 186° South 487 560 38,000  Level FlightAware ADS-B
Fri 02:15:32 AM 39.8490 141.3880 186° South 487 560 38,000  Level FlightAware ADS-B
Fri 02:16:17 AM 39.7540 141.3740 186° South 486 559 38,000  Level FlightAware ADS-B
Fri 02:16:57 AM 39.6660 141.3620 186° South 484 557 38,000  Level FlightAware ADS-B
Fri 02:17:57 AM 39.5290 141.3420 186° South 483 556 38,000  Level FlightAware ADS-B
Fri 02:18:32 AM 39.4460 141.3300 186° South 481 554 38,000  Level FlightAware ADS-B
Fri 02:19:12 AM 39.3560 141.3170 186° South 481 554 38,000  Level FlightAware ADS-B
Fri 02:20:02 AM 39.2450 141.3020 186° South 472 543 38,000  Level FlightAware ADS-B
Fri 02:20:42 AM 39.1650 141.2900 187° South 471 542 38,000  Level FlightAware ADS-B
Fri 02:21:22 AM 39.0710 141.2770 186° South 471 542 38,000  Level FlightAware ADS-B
Fri 02:22:07 AM 38.9780 141.2640 186° South 481 554 38,000  Level FlightAware ADS-B
Fri 02:22:47 AM 38.8840 141.2500 187° South 472 543 38,000  Level FlightAware ADS-B
Fri 02:23:32 AM 38.7880 141.2370 186° South 482 555 38,000  Level FlightAware ADS-B
Fri 02:24:07 AM 38.7120 141.2260 186° South 483 556 38,000  Level FlightAware ADS-B
Fri 02:24:52 AM 38.6060 141.2110 186° South 481 554 38,000  Level FlightAware ADS-B
Fri 02:25:37 AM 38.5100 141.1980 186° South 489 563 38,000  Level FlightAware ADS-B
Fri 02:26:17 AM 38.4140 141.1840 187° South 483 556 38,000  Level FlightAware ADS-B
Fri 02:27:02 AM 38.3140 141.1700 186° South 482 555 38,000  Level FlightAware ADS-B
Fri 02:27:42 AM 38.2210 141.1570 186° South 486 559 38,000 -240 Level FlightAware ADS-B
Fri 02:28:17 AM 38.1440 141.1460 186° South 468 539 37,700 -918 Descending FlightAware ADS-B
Fri 02:29:07 AM 38.0360 141.1310 186° South 452 520 36,700 -1,933 Descending FlightAware ADS-B
Fri 02:29:47 AM 37.9480 141.1170 187° South 461 531 34,800 -1,694 Descending FlightAware ADS-B
Fri 02:30:32 AM 37.8580 141.0890 194° South 438 504 34,300 -1,059 Descending FlightAware ADS-B
Fri 02:31:12 AM 37.7790 141.0560 198° South 439 505 33,300 -2,175 Descending FlightAware ADS-B
Fri 02:31:52 AM 37.7010 141.0240 198° South 439 505 31,400 -2,259 Descending FlightAware ADS-B
Fri 02:32:37 AM 37.6150 140.9900 197° South 418 481 30,100 -988 Descending FlightAware ADS-B
Fri 02:33:17 AM 37.5400 140.9610 197° South 418 481 30,000 -75 Descending FlightAware ADS-B
Fri 02:33:57 AM 37.4680 140.9330 197° South 405 466 30,000  Level FlightAware ADS-B
Fri 02:34:42 AM 37.3880 140.9020 197° South 407 468 30,000 -565 Level FlightAware ADS-B
Fri 02:35:22 AM 37.3110 140.8720 197° South 402 463 29,200 -1,200 Descending FlightAware ADS-B
Fri 02:36:02 AM 37.2410 140.8450 197° South 403 464 28,400 -1,341 Descending FlightAware ADS-B
Fri 02:36:47 AM 37.1600 140.8130 197° South 387 445 27,300 -1,412 Descending FlightAware ADS-B
Fri 02:37:27 AM 37.0960 140.7890 197° South 384 442 26,400 -1,500 Descending FlightAware ADS-B
Fri 02:38:07 AM 37.0200 140.7590 197° South 392 451 25,300 -1,500 Descending FlightAware ADS-B
Fri 02:38:47 AM 36.9550 140.7450 190° South 406 467 24,400 -1,800 Descending FlightAware ADS-B
Fri 02:39:07 AM 36.9110 140.7540 171° South 422 486 23,500 -2,700 Descending FlightAware ADS-B
Fri 02:39:47 AM 36.8340 140.7790 165° South 414 476 21,700 -2,329 Descending FlightAware ADS-B
Fri 02:40:32 AM 36.7570 140.8030 166° South 411 473 20,200 -1,624 Descending FlightAware ADS-B
Fri 02:41:12 AM 36.6870 140.8110 175° South 393 452 19,400 -1,600 Descending FlightAware ADS-B
Fri 02:42:02 AM 36.6010 140.8180 176° South 382 440 17,800 -2,220 Descending FlightAware ADS-B
Fri 02:42:52 AM 36.5050 140.8240 177° South 370 426 15,700 -2,286 Descending FlightAware ADS-B
Fri 02:43:47 AM 36.4210 140.8270 178° South 360 414 13,800 -2,211 Descending FlightAware ADS-B
Fri 02:44:27 AM 36.3450 140.8420 171° South 359 413 12,200 -1,906 Descending FlightAware ADS-B
Fri 02:45:12 AM 36.2770 140.8600 168° South 361 415 11,100 -660 Descending FlightAware ADS-B
Fri 02:46:07 AM 36.1920 140.8810 169° South 363 418 11,100 -218 Level FlightAware ADS-B
Fri 02:47:02 AM 36.0980 140.9040 169° South 349 402 10,700 -667 Descending FlightAware ADS-B
Fri 02:47:37 AM 36.0450 140.9180 168° South 334 384 10,100 -771 Descending FlightAware ADS-B
Fri 02:48:12 AM 35.9890 140.9330 168° South 294 338 9,800 -646 Descending FlightAware ADS-B
Fri 02:48:42 AM 35.9480 140.9430 169° South 278 320 9,400 -600 Descending FlightAware ADS-B
Fri 02:49:22 AM 35.9020 140.9320 191° South 272 313 9,100 -327 Descending FlightAware ADS-B
Fri 02:49:37 AM 35.8860 140.9170 217° Southwest 261 300 9,100  Level FlightAware ADS-B
Fri 02:50:07 AM 35.8660 140.8810 236° Southwest 256 295 9,100  Level FlightAware ADS-B
Fri 02:50:32 AM 35.8520 140.8480 242° Southwest 250 288 9,100  Level FlightAware ADS-B
Fri 02:50:47 AM 35.8470 140.8280 253° West 249 287 9,100 -300 Level FlightAware ADS-B
Fri 02:51:12 AM 35.8560 140.7940 288° West 242 278 8,900 -764 Descending FlightAware ADS-B
Fri 02:51:42 AM 35.8700 140.7560 294° West 235 270 8,400 -800 Descending FlightAware ADS-B
Fri 02:52:12 AM 35.8840 140.7190 295° West 239 275 8,100 -327 Descending FlightAware ADS-B
Fri 02:52:37 AM 35.8950 140.6890 294° West 234 269 8,100  Level FlightAware ADS-B
Fri 02:53:07 AM 35.9080 140.6510 293° West 230 265 8,100  Level FlightAware ADS-B
Fri 02:53:32 AM 35.9190 140.6220 295° West 215 247 8,100  Level FlightAware ADS-B
Fri 02:54:02 AM 35.9300 140.5890 292° West 210 242 8,100  Level FlightAware ADS-B
Fri 02:54:32 AM 35.9420 140.5550 294° West 206 237 8,100  Level FlightAware ADS-B
Fri 02:54:57 AM 35.9510 140.5290 293° West 210 242 8,100  Level FlightAware ADS-B
Fri 02:55:27 AM 35.9630 140.4950 294° West 209 241 8,100  Level FlightAware ADS-B
Fri 02:55:57 AM 35.9750 140.4610 294° West 211 243 8,100 -109 Level FlightAware ADS-B
Fri 02:56:22 AM 35.9820 140.4330 287° West 205 236 8,000 -1,200 Descending FlightAware ADS-B
Fri 02:56:47 AM 35.9870 140.4040 282° West 209 241 7,100 -1,855 Descending FlightAware ADS-B
Fri 02:57:17 AM 35.9900 140.3680 276° West 214 246 6,300 -1,300 Descending FlightAware ADS-B
Fri 02:57:47 AM 35.9870 140.3320 264° West 213 245 5,800 -933 Descending FlightAware ADS-B
Fri 02:58:02 AM 35.9850 140.3180 260° West 207 238 5,600 -900 Descending FlightAware ADS-B
Fri 02:58:27 AM 35.9820 140.2870 263° West 191 220 5,200 -873 Descending FlightAware ADS-B
Fri 02:58:57 AM 35.9800 140.2580 265° West 178 205 4,800 -960 Descending FlightAware ADS-B
Fri 02:59:17 AM 35.9760 140.2380 256° West 177 204 4,400 -1,050 Descending FlightAware ADS-B
Fri 02:59:37 AM 35.9680 140.2250 233° Southwest 166 191 4,100 -600 Descending FlightAware ADS-B
Fri 03:00:07 AM 35.9510 140.2040 225° Southwest 163 188 3,900 -847 Descending FlightAware ADS-B
Fri 03:01:02 AM 35.9050 140.2120 172° South 161 185 2,900 -632 Descending FlightAware ADS-B
Fri 03:01:42 AM 35.8770 140.2240 161° South 165 190 2,900 -375 Level FlightAware ADS-B
Fri 03:02:22 AM 35.8500 140.2430 150° Southeast 162 186 2,400 -776 Descending FlightAware ADS-B
Fri 03:03:07 AM 35.8230 140.2620 150° Southeast 151 174 1,800 -738 Descending FlightAware ADS-B
Fri 03:03:27 AM 35.8110 140.2700 152° Southeast 153 176 1,600 -847 Descending FlightAware ADS-B
Fri 03:04:32 AM 35.7690 140.2990 151° Southeast 143 165 600 -632 Descending FlightAware ADS-B
Fri 03:05:02 AM 35.7550 140.3090 150° Southeast 143 165 600  Level FlightAware ADS-B
Fri 03:07:00 AM 35.7500 140.3833 202° Southwest  Level FlightAware Approximate
Fri 03:08:00 AM 35.7647 140.3864 202° Southwest  Level Estimated
Fri 03:09:00 AM 35.7647 140.3864 202° Southwest  Level Estimated
Fri 03:10:00 AM 35.7647 140.3864 202° Southwest  Level Estimated
Fri 03:11:00 AM 35.7647 140.3864 202° Southwest  Level Estimated
Fri 03:12:00 AM 35.7647 140.3864 202° Southwest  Level Estimated
Fri 03:13:00 AM 35.7647 140.3864 202° Southwest  Level Estimated
Fri 03:14:00 AM 35.7647 140.3864 202° Southwest  Level Estimated

Login

Don't have an account? Register now (free) for customized features, flight alerts, and more!